Time;durP1;ratioP1;P1;durP2;ratioP2;P2;SDS_P1;SDS_P2;PMS_P1;PMS_P2;Temp;Humidity;BMP_temperature;BMP_pressure;BME280_temperature;BME280_humidity;BME280_pressure;Samples;Min_cycle;Max_cycle;Signal;HPM_P1;HPM_P2
2022/07/01 00:00:41;;;;;;;3.83;2.20;;;18.60;99.90;;;;;;5061847;28;20339;-74
2022/07/01 00:03:26;;;;;;;4.07;2.20;;;18.60;99.90;;;;;;5056952;28;20218;-76
2022/07/01 00:06:10;;;;;;;3.23;2.50;;;18.50;99.90;;;;;;5063970;28;20256;-76
2022/07/01 00:08:54;;;;;;;3.03;2.60;;;18.40;99.90;;;;;;5073813;28;20179;-76
2022/07/01 00:11:44;;;;;;;2.70;2.50;;;18.30;99.90;;;;;;5055659;28;20187;-75
2022/07/01 00:14:28;;;;;;;4.47;2.97;;;18.30;99.90;;;;;;5059905;28;20210;-74
2022/07/01 00:17:12;;;;;;;4.43;3.07;;;18.20;99.90;;;;;;5058047;28;20495;-76
2022/07/01 00:19:57;;;;;;;6.70;3.30;;;18.10;99.90;;;;;;5063366;28;20772;-75
2022/07/01 00:22:42;;;;;;;4.53;3.23;;;18.10;99.90;;;;;;5064833;28;20244;-75
2022/07/01 00:25:26;;;;;;;5.00;3.33;;;18.10;99.90;;;;;;5059748;28;20226;-74
2022/07/01 00:28:11;;;;;;;5.33;3.70;;;18.00;99.90;;;;;;5063648;28;20281;-75
2022/07/01 00:30:55;;;;;;;9.30;3.37;;;18.00;99.90;;;;;;5061322;28;20189;-76
2022/07/01 00:33:39;;;;;;;5.23;3.80;;;17.90;99.90;;;;;;5063527;28;20217;-75
2022/07/01 00:36:24;;;;;;;4.30;3.00;;;17.80;99.90;;;;;;5066320;28;20198;-75
2022/07/01 00:39:08;;;;;;;4.93;2.90;;;17.70;99.90;;;;;;5061711;28;20256;-75
2022/07/01 00:41:52;;;;;;;3.13;2.83;;;17.60;99.90;;;;;;5062437;28;20202;-75
2022/07/01 00:44:37;;;;;;;5.87;3.50;;;17.50;99.90;;;;;;5058540;28;20225;-76
2022/07/01 00:47:21;;;;;;;5.17;2.83;;;17.40;99.90;;;;;;5062554;28;20198;-76
2022/07/01 00:50:11;;;;;;;4.03;2.77;;;17.40;99.90;;;;;;5060581;28;20179;-76
2022/07/01 00:52:55;;;;;;;5.00;2.87;;;17.30;99.90;;;;;;5060299;28;20268;-75
2022/07/01 00:55:41;;;;;;;3.27;2.77;;;17.30;99.90;;;;;;5057758;28;20284;-75
2022/07/01 00:58:28;;;;;;;6.00;2.83;;;17.20;99.90;;;;;;5056712;28;20189;-75
2022/07/01 01:01:13;;;;;;;5.07;2.83;;;17.10;99.90;;;;;;5062722;28;20186;-75
2022/07/01 01:03:58;;;;;;;3.10;2.50;;;17.10;99.90;;;;;;5063694;28;20249;-76
2022/07/01 01:06:42;;;;;;;5.47;2.57;;;17.00;99.90;;;;;;5058439;28;20214;-74
2022/07/01 01:09:29;;;;;;;5.47;2.87;;;16.90;99.90;;;;;;5057305;28;20190;-76
2022/07/01 01:12:14;;;;;;;4.20;2.50;;;16.90;99.90;;;;;;5058047;28;20587;-74
2022/07/01 01:14:58;;;;;;;5.07;2.50;;;16.90;99.90;;;;;;5061050;28;20274;-75
2022/07/01 01:17:43;;;;;;;5.00;2.87;;;16.80;99.90;;;;;;5060634;28;20244;-76
2022/07/01 01:20:32;;;;;;;4.30;2.60;;;16.80;99.90;;;;;;5058476;28;20198;-75
2022/07/01 01:23:17;;;;;;;4.37;2.37;;;16.80;99.90;;;;;;5066230;28;20230;-76
2022/07/01 01:26:02;;;;;;;4.67;2.30;;;16.80;99.90;;;;;;5059333;28;20259;-75
2022/07/01 01:28:48;;;;;;;4.47;2.13;;;16.70;99.90;;;;;;5063674;28;20205;-74
2022/07/01 01:31:33;;;;;;;3.57;2.00;;;16.70;99.90;;;;;;5055926;28;20189;-74
2022/07/01 01:34:17;;;;;;;2.10;1.53;;;16.60;99.90;;;;;;5061848;28;20217;-75
2022/07/01 01:37:01;;;;;;;3.50;1.47;;;16.60;99.90;;;;;;5073755;28;20195;-75
2022/07/01 01:39:46;;;;;;;2.00;1.30;;;16.60;99.90;;;;;;5082286;28;20194;-76
2022/07/01 01:42:30;;;;;;;3.47;1.50;;;16.60;99.90;;;;;;5063764;28;20266;-75
2022/07/01 01:45:14;;;;;;;1.33;1.13;;;16.50;99.90;;;;;;5061513;28;20241;-76
2022/07/01 01:47:59;;;;;;;4.37;1.10;;;16.50;99.90;;;;;;5059242;28;20244;-76
2022/07/01 01:50:43;;;;;;;3.77;1.13;;;16.40;99.90;;;;;;5061217;28;20182;-74
2022/07/01 01:53:27;;;;;;;2.73;1.13;;;16.50;99.90;;;;;;5064794;28;20245;-76
2022/07/01 01:56:12;;;;;;;2.47;1.20;;;16.40;99.90;;;;;;5058891;28;20209;-75
2022/07/01 01:58:57;;;;;;;3.73;1.10;;;16.40;99.90;;;;;;5063429;28;20262;-75
2022/07/01 02:01:41;;;;;;;2.67;1.10;;;16.30;99.90;;;;;;5057024;28;20316;-76
2022/07/01 02:04:25;;;;;;;4.67;1.00;;;16.30;99.90;;;;;;5058047;28;20220;-74
2022/07/01 02:07:10;;;;;;;3.73;1.33;;;16.30;99.90;;;;;;5059684;28;20186;-74
2022/07/01 02:09:54;;;;;;;1.40;1.10;;;16.20;99.90;;;;;;5061117;28;20613;-74
2022/07/01 02:12:38;;;;;;;1.77;1.00;;;16.20;99.90;;;;;;5061856;28;20190;-73
2022/07/01 02:15:22;;;;;;;5.10;1.20;;;16.10;99.90;;;;;;5064827;28;20583;-75
2022/07/01 02:18:07;;;;;;;3.07;1.70;;;16.10;99.90;;;;;;5063341;28;20198;-75
2022/07/01 02:20:50;;;;;;;1.63;1.03;;;16.10;99.90;;;;;;5062892;28;20198;-75
2022/07/01 02:23:35;;;;;;;4.40;1.00;;;16.10;99.90;;;;;;5065906;28;20646;-74
2022/07/01 02:26:19;;;;;;;5.57;1.20;;;16.10;99.90;;;;;;5059530;28;20228;-74
2022/07/01 02:29:04;;;;;;;3.50;1.30;;;16.10;99.90;;;;;;5067646;28;20190;-75
2022/07/01 02:31:48;;;;;;;2.80;0.90;;;16.10;99.90;;;;;;5060110;28;20306;-74
2022/07/01 02:34:32;;;;;;;2.70;1.10;;;16.10;99.90;;;;;;5064846;28;20339;-75
2022/07/01 02:37:16;;;;;;;3.23;1.30;;;16.10;99.90;;;;;;5069569;28;20209;-74
2022/07/01 02:40:02;;;;;;;1.87;0.97;;;16.10;99.90;;;;;;5068565;28;20218;-75
2022/07/01 02:42:46;;;;;;;3.57;1.20;;;16.10;99.90;;;;;;5067081;28;20617;-74
2022/07/01 02:45:33;;;;;;;1.23;1.10;;;16.10;99.90;;;;;;5085905;28;20248;-74
2022/07/01 02:48:17;;;;;;;2.50;1.30;;;16.10;99.90;;;;;;5061845;28;20662;-75
2022/07/01 02:51:01;;;;;;;2.90;1.07;;;16.10;99.90;;;;;;5067790;28;20182;-74
2022/07/01 02:53:45;;;;;;;3.97;1.83;;;16.10;99.90;;;;;;5068342;28;20206;-74
2022/07/01 02:56:30;;;;;;;5.63;1.50;;;16.10;99.90;;;;;;5063923;28;20186;-74
2022/07/01 02:59:14;;;;;;;4.63;1.53;;;16.10;99.90;;;;;;5066537;28;20189;-74
2022/07/01 03:01:58;;;;;;;2.13;1.57;;;16.10;99.90;;;;;;5067940;28;20186;-76
2022/07/01 03:04:42;;;;;;;3.03;1.50;;;16.00;99.90;;;;;;5066338;28;20721;-75
2022/07/01 03:07:27;;;;;;;5.00;1.30;;;16.00;99.90;;;;;;5067865;28;20186;-74
2022/07/01 03:10:11;;;;;;;2.30;1.60;;;16.00;99.90;;;;;;5070615;28;20217;-74
2022/07/01 03:12:58;;;;;;;3.23;1.43;;;16.00;99.90;;;;;;5069872;28;20206;-74
2022/07/01 03:15:42;;;;;;;5.13;1.60;;;16.00;99.90;;;;;;5062186;28;20190;-74
2022/07/01 03:18:27;;;;;;;3.13;1.60;;;16.00;99.90;;;;;;5059905;28;20201;-74
2022/07/01 03:21:11;;;;;;;1.63;1.30;;;16.00;99.90;;;;;;5058987;28;20776;-75
2022/07/01 03:23:55;;;;;;;1.80;1.40;;;16.00;99.90;;;;;;5069593;28;20210;-73
2022/07/01 03:26:39;;;;;;;3.57;1.53;;;16.00;99.90;;;;;;5066167;28;20190;-75
2022/07/01 03:29:23;;;;;;;2.17;1.37;;;15.90;99.90;;;;;;5067765;28;20223;-74
2022/07/01 03:32:11;;;;;;;1.97;1.37;;;15.90;99.90;;;;;;5055609;28;20213;-75
2022/07/01 03:34:56;;;;;;;2.87;1.33;;;15.90;99.90;;;;;;5064491;28;20198;-74
2022/07/01 03:37:40;;;;;;;5.33;1.70;;;15.90;99.90;;;;;;5063762;28;20324;-74
2022/07/01 03:40:24;;;;;;;3.20;1.80;;;15.90;99.90;;;;;;5066799;28;20244;-74
2022/07/01 03:43:09;;;;;;;4.07;1.80;;;15.90;99.90;;;;;;5082830;28;20751;-74
2022/07/01 03:45:53;;;;;;;3.97;1.90;;;15.90;99.90;;;;;;5065914;28;20257;-75
2022/07/01 03:48:37;;;;;;;4.00;1.53;;;15.90;99.90;;;;;;5060706;28;20197;-74
2022/07/01 03:51:21;;;;;;;4.10;1.80;;;15.90;99.90;;;;;;5070134;28;20261;-73
2022/07/01 03:57:09;;;;;;;3.30;3.00;;;15.90;99.90;;;;;;5067503;28;20218;-74
2022/07/01 03:59:54;;;;;;;5.77;3.13;;;15.90;99.90;;;;;;5069128;28;20237;-75
2022/07/01 04:02:42;;;;;;;4.47;3.07;;;15.90;99.90;;;;;;5063508;28;20248;-74
2022/07/01 04:05:26;;;;;;;9.80;4.37;;;15.90;99.90;;;;;;5061378;28;20205;-76
2022/07/01 04:08:11;;;;;;;6.83;4.73;;;16.00;99.90;;;;;;5065416;28;20251;-75
2022/07/01 04:10:56;;;;;;;7.50;4.87;;;16.00;99.90;;;;;;5069910;28;20232;-75
2022/07/01 04:13:43;;;;;;;6.13;5.30;;;16.00;99.90;;;;;;5065362;28;20272;-76
2022/07/01 04:16:28;;;;;;;7.73;5.50;;;16.00;99.90;;;;;;5063907;28;20228;-75
2022/07/01 04:19:14;;;;;;;7.40;6.70;;;16.00;99.90;;;;;;5064258;28;20178;-74
2022/07/01 04:25:03;;;;;;;8.80;7.57;;;16.00;99.90;;;;;;5067062;28;20755;-74
2022/07/01 04:27:48;;;;;;;10.80;8.03;;;16.00;99.90;;;;;;5062255;28;20240;-74
2022/07/01 04:30:32;;;;;;;11.30;8.40;;;16.00;99.90;;;;;;5067236;28;20643;-75
2022/07/01 04:33:16;;;;;;;12.00;8.93;;;16.00;99.90;;;;;;5068733;28;20308;-75
2022/07/01 04:36:00;;;;;;;9.70;8.70;;;16.00;99.90;;;;;;5067427;28;20194;-75
2022/07/01 04:38:44;;;;;;;11.60;9.13;;;16.00;99.90;;;;;;5065895;28;20194;-77
2022/07/01 04:44:34;;;;;;;10.63;9.53;;;15.90;99.90;;;;;;5063267;28;20267;-75
2022/07/01 04:47:18;;;;;;;11.97;10.40;;;15.90;99.90;;;;;;5066336;28;20286;-74
2022/07/01 04:50:03;;;;;;;12.60;11.20;;;15.90;99.90;;;;;;5063676;28;20237;-74
2022/07/01 04:52:47;;;;;;;11.50;10.10;;;15.90;99.90;;;;;;5066603;28;20236;-74
2022/07/01 04:55:31;;;;;;;11.13;9.60;;;15.90;99.90;;;;;;5066495;28;20299;-75
2022/07/01 04:58:15;;;;;;;13.70;9.73;;;15.80;99.90;;;;;;5064124;28;20230;-74
2022/07/01 05:00:59;;;;;;;11.50;10.30;;;15.80;99.90;;;;;;5062170;28;20620;-73
2022/07/01 05:03:43;;;;;;;13.50;9.90;;;15.80;99.90;;;;;;5066352;28;20213;-74
2022/07/01 05:06:27;;;;;;;14.30;9.43;;;15.80;99.90;;;;;;5062092;28;20201;-74
2022/07/01 05:09:12;;;;;;;11.13;9.57;;;15.80;99.90;;;;;;5064531;28;20182;-75
2022/07/01 05:11:56;;;;;;;11.73;9.60;;;15.80;99.90;;;;;;5066344;28;20207;-74
2022/07/01 05:14:40;;;;;;;12.67;10.23;;;15.80;99.90;;;;;;5069482;28;20708;-73
2022/07/01 05:21:55;;;;;;;11.77;9.87;;;15.80;99.90;;;;;;5076208;28;20181;-73
2022/07/01 05:23:31;;;;;;;11.53;10.23;;;15.80;99.90;;;;;;5055754;28;20213;-74
2022/07/01 05:26:16;;;;;;;13.07;10.37;;;15.80;99.90;;;;;;5085414;28;20224;-74
2022/07/01 05:29:00;;;;;;;12.73;10.83;;;15.80;99.90;;;;;;5063144;28;20190;-74
2022/07/01 05:31:44;;;;;;;11.90;10.47;;;15.80;99.90;;;;;;5051740;28;20193;-74
2022/07/01 05:34:28;;;;;;;14.23;11.27;;;15.70;99.90;;;;;;5062065;28;20744;-74
2022/07/01 05:37:13;;;;;;;12.47;10.87;;;15.70;99.90;;;;;;5057805;28;20244;-74
2022/07/01 05:39:57;;;;;;;13.17;11.87;;;15.70;99.90;;;;;;5060803;28;20175;-74
2022/07/01 05:42:41;;;;;;;13.07;11.67;;;15.70;99.90;;;;;;5070101;28;20212;-74
2022/07/01 05:45:25;;;;;;;12.77;11.37;;;15.70;99.90;;;;;;5061824;28;20237;-73
2022/07/01 05:48:09;;;;;;;13.40;11.93;;;15.70;99.90;;;;;;5065692;28;20181;-73
2022/07/01 05:50:53;;;;;;;15.50;12.53;;;15.70;99.90;;;;;;5082329;28;20597;-73
2022/07/01 05:53:37;;;;;;;15.97;12.20;;;15.70;99.90;;;;;;5064551;28;20209;-73
2022/07/01 05:56:22;;;;;;;16.77;13.20;;;15.70;99.90;;;;;;5079618;28;20787;-73
2022/07/01 05:59:08;;;;;;;15.57;13.97;;;15.70;99.90;;;;;;5063842;28;20186;-73
2022/07/01 06:01:52;;;;;;;19.80;14.27;;;15.70;99.90;;;;;;5065037;28;20234;-73
2022/07/01 06:04:36;;;;;;;21.87;14.67;;;15.70;99.90;;;;;;5068842;28;20275;-73
2022/07/01 06:07:20;;;;;;;17.37;14.87;;;15.70;99.90;;;;;;5066637;28;20193;-73
2022/07/01 06:10:05;;;;;;;17.83;15.03;;;15.70;99.90;;;;;;5068137;28;20213;-73
2022/07/01 06:12:49;;;;;;;17.07;15.00;;;15.60;99.90;;;;;;5080452;28;20206;-74
2022/07/01 06:15:33;;;;;;;18.43;14.67;;;15.60;99.90;;;;;;5067486;28;20295;-71
2022/07/01 06:18:17;;;;;;;18.30;15.27;;;15.60;99.90;;;;;;5083776;28;20198;-71
2022/07/01 06:21:01;;;;;;;18.50;15.67;;;15.60;99.90;;;;;;5066546;28;20205;-70
2022/07/01 06:23:45;;;;;;;18.37;16.40;;;15.60;99.90;;;;;;5066995;28;20348;-70
2022/07/01 06:26:30;;;;;;;18.57;15.83;;;15.60;99.90;;;;;;5071450;28;20198;-73
2022/07/01 06:29:14;;;;;;;21.80;15.80;;;15.70;99.90;;;;;;5077150;28;20182;-72
2022/07/01 06:31:59;;;;;;;18.40;15.23;;;15.70;99.90;;;;;;5069760;28;20649;-72
2022/07/01 06:34:42;;;;;;;20.67;16.60;;;15.70;99.90;;;;;;5065951;28;20229;-73
2022/07/01 06:37:27;;;;;;;19.37;15.97;;;15.70;99.90;;;;;;5083951;28;20194;-73
2022/07/01 06:40:11;;;;;;;18.43;16.53;;;15.80;99.90;;;;;;5070036;28;20181;-73
2022/07/01 06:42:55;;;;;;;19.17;16.73;;;15.70;99.90;;;;;;5078873;28;20311;-73
2022/07/01 06:45:39;;;;;;;20.63;16.67;;;15.80;99.90;;;;;;5065109;28;20206;-77
2022/07/01 06:48:23;;;;;;;18.23;16.30;;;15.80;99.90;;;;;;5078560;28;20187;-73
2022/07/01 06:51:07;;;;;;;18.23;15.33;;;15.80;99.90;;;;;;5066167;28;20174;-73
2022/07/01 06:53:51;;;;;;;24.83;16.43;;;15.80;99.90;;;;;;5067991;28;20290;-73
2022/07/01 06:56:36;;;;;;;22.07;16.33;;;15.80;99.90;;;;;;5070113;28;20300;-73
2022/07/01 06:59:20;;;;;;;21.80;17.07;;;15.80;99.90;;;;;;5063618;28;20756;-71
2022/07/01 07:02:07;;;;;;;22.93;17.80;;;15.80;99.90;;;;;;5067729;28;20190;-73
2022/07/01 07:04:57;;;;;;;24.17;19.03;;;15.80;99.90;;;;;;5063481;28;20261;-73
2022/07/01 07:07:41;;;;;;;23.53;18.50;;;15.70;99.90;;;;;;5064807;28;20190;-72
2022/07/01 07:10:25;;;;;;;23.17;18.80;;;15.70;99.90;;;;;;5079065;28;20300;-73
2022/07/01 07:13:09;;;;;;;23.73;18.80;;;15.80;99.90;;;;;;5065136;28;20286;-72
2022/07/01 07:15:54;;;;;;;25.03;19.20;;;15.80;99.90;;;;;;5072382;28;20181;-72
2022/07/01 07:18:38;;;;;;;22.33;18.67;;;15.80;99.90;;;;;;5065708;28;20185;-73
2022/07/01 07:21:22;;;;;;;23.97;19.40;;;15.80;99.90;;;;;;5064055;28;20613;-73
2022/07/01 07:24:07;;;;;;;21.43;18.70;;;15.80;99.90;;;;;;5066271;28;20294;-72
2022/07/01 07:26:51;;;;;;;24.67;18.60;;;15.90;99.90;;;;;;5064789;28;20307;-73
2022/07/01 07:29:35;;;;;;;21.20;18.50;;;15.90;99.90;;;;;;5066653;28;20229;-73
2022/07/01 07:32:19;;;;;;;27.50;19.63;;;15.90;99.90;;;;;;5073975;28;20186;-72
2022/07/01 07:35:03;;;;;;;24.73;19.67;;;15.90;99.90;;;;;;5061005;28;20193;-72
2022/07/01 07:37:48;;;;;;;21.43;19.13;;;16.00;99.90;;;;;;5061453;28;20236;-72
2022/07/01 07:40:32;;;;;;;23.33;19.60;;;16.00;99.90;;;;;;5062642;28;20190;-73
2022/07/01 07:43:16;;;;;;;23.87;19.80;;;16.00;99.90;;;;;;5084080;28;20297;-74
2022/07/01 07:46:03;;;;;;;22.93;19.60;;;16.10;99.90;;;;;;5064164;28;20222;-72
2022/07/01 07:48:48;;;;;;;24.73;18.73;;;16.10;99.90;;;;;;5057699;28;20313;-72
2022/07/01 07:51:32;;;;;;;22.63;19.37;;;16.10;99.90;;;;;;5066169;28;20194;-73
2022/07/01 07:54:16;;;;;;;24.77;19.37;;;16.20;99.90;;;;;;5078901;28;20727;-73
2022/07/01 07:57:00;;;;;;;24.33;19.77;;;16.20;99.90;;;;;;5067927;28;20224;-73
2022/07/01 07:59:44;;;;;;;23.30;19.60;;;16.20;99.90;;;;;;5075115;28;20178;-73
2022/07/01 08:02:28;;;;;;;24.73;19.97;;;16.20;99.90;;;;;;5063436;28;20186;-73
2022/07/01 08:05:12;;;;;;;22.37;19.47;;;16.30;99.90;;;;;;5060149;28;20209;-73
2022/07/01 08:07:56;;;;;;;26.80;20.20;;;16.30;99.90;;;;;;5077702;28;20178;-73
2022/07/01 08:10:40;;;;;;;24.13;18.63;;;16.40;99.90;;;;;;5066740;28;20239;-73
2022/07/01 08:13:25;;;;;;;24.93;18.30;;;16.40;99.90;;;;;;5061140;28;20222;-73
2022/07/01 08:16:09;;;;;;;23.87;18.93;;;16.40;99.90;;;;;;5067071;28;20190;-72
2022/07/01 08:18:54;;;;;;;20.40;18.17;;;16.40;99.90;;;;;;5079917;28;20713;-73
2022/07/01 08:21:38;;;;;;;21.97;17.73;;;16.50;99.90;;;;;;5068020;28;20598;-73
2022/07/01 08:24:22;;;;;;;20.23;18.07;;;16.50;99.90;;;;;;5066270;28;20226;-73
2022/07/01 08:27:06;;;;;;;21.30;17.87;;;16.50;99.90;;;;;;5082980;28;20235;-73
2022/07/01 08:29:50;;;;;;;23.30;18.67;;;16.50;99.90;;;;;;5064704;28;20552;-73
2022/07/01 08:32:34;;;;;;;21.67;18.57;;;16.50;99.90;;;;;;5065446;28;20743;-74
2022/07/01 08:35:19;;;;;;;23.90;19.53;;;16.50;99.90;;;;;;5067291;28;20274;-73
2022/07/01 08:38:03;;;;;;;21.47;17.93;;;16.60;99.90;;;;;;5064515;28;20235;-73
2022/07/01 08:40:47;;;;;;;23.77;18.00;;;16.50;99.90;;;;;;5061402;28;20191;-72
2022/07/01 08:43:31;;;;;;;25.20;18.27;;;16.60;99.90;;;;;;5075598;28;20247;-73
2022/07/01 08:46:15;;;;;;;19.50;17.40;;;16.60;99.90;;;;;;5065651;28;20272;-73
2022/07/01 08:48:59;;;;;;;21.73;16.60;;;16.60;99.90;;;;;;5082151;28;20236;-73
2022/07/01 08:51:44;;;;;;;19.63;16.80;;;16.70;99.90;;;;;;5079329;28;20317;-73
2022/07/01 08:54:28;;;;;;;21.77;16.53;;;16.70;99.90;;;;;;5063132;28;20221;-73
2022/07/01 08:57:13;;;;;;;17.63;15.63;;;16.80;99.90;;;;;;5068000;28;20564;-74
2022/07/01 09:00:07;;;;;;;18.53;14.97;;;16.80;99.90;;;;;;5061718;28;20213;-73
2022/07/01 09:03:03;;;;;;;16.50;14.60;;;16.90;99.90;;;;;;5076062;28;20209;-73
2022/07/01 09:05:52;;;;;;;19.73;15.53;;;16.90;99.90;;;;;;5063637;28;20220;-73
2022/07/01 09:08:36;;;;;;;17.20;14.13;;;17.00;99.90;;;;;;5064243;28;20228;-73
2022/07/01 09:11:23;;;;;;;23.33;15.27;;;17.00;99.90;;;;;;5066943;28;20189;-73
2022/07/01 09:14:17;;;;;;;16.47;14.77;;;17.00;99.90;;;;;;5063453;28;20221;-74
2022/07/01 09:17:04;;;;;;;19.40;14.40;;;17.10;99.90;;;;;;5065175;28;20237;-74
2022/07/01 09:19:50;;;;;;;16.70;15.00;;;17.10;99.90;;;;;;5064606;28;20234;-73
2022/07/01 09:22:35;;;;;;;17.33;14.83;;;17.20;99.90;;;;;;5063370;28;20209;-73
2022/07/01 09:25:19;;;;;;;16.50;14.43;;;17.20;99.90;;;;;;5063143;28;20221;-72
2022/07/01 09:28:12;;;;;;;16.53;14.07;;;17.20;99.90;;;;;;5067244;28;20240;-73
2022/07/01 09:30:58;;;;;;;17.17;14.57;;;17.30;99.90;;;;;;5067341;28;20178;-73
2022/07/01 09:33:43;;;;;;;15.87;13.57;;;17.20;99.90;;;;;;5066978;28;20218;-73
2022/07/01 09:36:28;;;;;;;17.10;13.23;;;17.30;99.90;;;;;;5060371;28;20186;-73
2022/07/01 09:39:12;;;;;;;17.80;14.07;;;17.30;99.90;;;;;;5066000;28;20217;-72
2022/07/01 09:41:57;;;;;;;16.73;13.77;;;17.30;99.90;;;;;;5068455;28;20290;-73
2022/07/01 09:44:56;;;;;;;17.10;13.87;;;17.40;99.90;;;;;;5059839;28;20264;-73
2022/07/01 09:47:44;;;;;;;18.07;14.73;;;17.40;99.90;;;;;;5061707;28;20271;-72
2022/07/01 09:50:29;;;;;;;17.90;14.00;;;17.40;99.90;;;;;;5063686;28;20186;-73
2022/07/01 09:53:14;;;;;;;17.83;13.47;;;17.50;99.90;;;;;;5070830;28;20206;-75
2022/07/01 09:55:59;;;;;;;19.47;13.63;;;17.50;99.90;;;;;;5072302;28;20263;-73
2022/07/01 09:58:43;;;;;;;13.83;12.37;;;17.50;99.90;;;;;;5077049;28;20202;-73
2022/07/01 10:01:28;;;;;;;13.63;12.23;;;17.60;99.90;;;;;;5081757;28;20206;-73
2022/07/01 10:04:15;;;;;;;15.37;12.50;;;17.60;99.90;;;;;;5066285;28;20209;-74
2022/07/01 10:07:06;;;;;;;17.07;12.00;;;17.60;99.90;;;;;;5070952;28;20235;-73
2022/07/01 10:10:08;;;;;;;16.10;12.07;;;17.60;99.90;;;;;;5065238;28;20177;-73
2022/07/01 10:12:54;;;;;;;14.10;12.53;;;17.60;99.90;;;;;;5065632;28;20265;-74
2022/07/01 10:15:41;;;;;;;15.07;12.43;;;17.70;99.90;;;;;;5075245;28;20195;-73
2022/07/01 10:18:26;;;;;;;14.57;12.30;;;17.70;99.90;;;;;;5082258;28;20182;-73
2022/07/01 10:21:29;;;;;;;17.80;12.77;;;17.80;99.90;;;;;;5069929;28;20197;-73
2022/07/01 10:24:14;;;;;;;16.23;11.57;;;17.80;99.90;;;;;;5071050;28;20236;-74
2022/07/01 10:27:01;;;;;;;14.90;12.07;;;17.90;99.90;;;;;;5067235;28;20233;-74
2022/07/01 10:29:45;;;;;;;15.73;10.70;;;17.90;99.90;;;;;;5063214;28;20317;-74
2022/07/01 10:32:29;;;;;;;10.73;9.50;;;18.00;99.90;;;;;;5069464;28;20757;-73
2022/07/01 10:35:14;;;;;;;12.33;9.87;;;18.10;99.90;;;;;;5066812;28;20186;-74
2022/07/01 10:37:59;;;;;;;11.43;10.23;;;18.20;99.90;;;;;;5071480;28;20182;-74
2022/07/01 10:40:46;;;;;;;12.40;10.50;;;18.30;99.90;;;;;;5066134;28;20194;-73
2022/07/01 10:43:34;;;;;;;12.43;10.67;;;18.40;99.90;;;;;;5069623;28;20623;-73
2022/07/01 10:46:37;;;;;;;11.17;9.47;;;18.50;99.90;;;;;;5069106;28;20266;-74
2022/07/01 10:49:41;;;;;;;9.63;8.67;;;18.50;99.90;;;;;;5085874;28;20189;-74
2022/07/01 10:52:26;;;;;;;13.07;10.23;;;18.60;99.90;;;;;;5067110;28;20213;-74
2022/07/01 10:55:10;;;;;;;12.73;10.30;;;18.70;99.90;;;;;;5069088;28;20252;-74
2022/07/01 10:57:54;;;;;;;10.43;9.13;;;18.70;99.90;;;;;;5069534;28;20245;-74
2022/07/01 11:00:43;;;;;;;10.23;8.30;;;18.80;99.90;;;;;;5066312;28;20212;-74
2022/07/01 11:03:27;;;;;;;8.83;7.80;;;18.80;99.90;;;;;;5062362;28;20272;-74
2022/07/01 11:06:11;;;;;;;8.98;8.02;;;18.90;99.90;;;;;;5064309;28;20229;-74
2022/07/01 11:08:56;;;;;;;10.52;9.40;;;19.00;99.90;;;;;;5062428;28;20202;-73
2022/07/01 11:11:41;;;;;;;9.60;8.55;;;19.00;99.90;;;;;;5069098;28;20181;-74
2022/07/01 11:14:25;;;;;;;9.17;7.57;;;19.10;99.90;;;;;;5070812;28;20225;-74
2022/07/01 11:17:10;;;;;;;9.50;7.20;;;19.10;99.90;;;;;;5066459;28;20182;-74
2022/07/01 11:20:01;;;;;;;12.77;8.10;;;19.10;99.90;;;;;;5063977;28;20190;-74
2022/07/01 11:22:46;;;;;;;12.13;7.90;;;19.10;99.90;;;;;;5074896;28;20201;-74
2022/07/01 11:25:31;;;;;;;8.80;7.90;;;19.10;99.90;;;;;;5067233;28;20282;-74
2022/07/01 11:28:15;;;;;;;8.48;7.68;;;19.20;99.90;;;;;;5065485;28;20245;-74
2022/07/01 11:31:01;;;;;;;10.55;7.75;;;19.20;99.90;;;;;;5064170;28;20186;-74
2022/07/01 11:33:49;;;;;;;11.50;7.90;;;19.20;99.90;;;;;;5065398;28;20214;-74
2022/07/01 11:39:40;;;;;;;8.68;7.20;;;19.30;99.90;;;;;;5070796;28;20248;-73
2022/07/01 11:42:26;;;;;;;10.13;7.13;;;19.40;99.90;;;;;;5065865;28;20241;-74
2022/07/01 11:45:23;;;;;;;9.88;7.93;;;19.40;99.90;;;;;;5069891;28;20210;-74
2022/07/01 11:48:07;;;;;;;10.40;7.30;;;19.50;99.90;;;;;;5084000;28;20186;-74
2022/07/01 11:50:51;;;;;;;14.05;6.30;;;19.50;99.90;;;;;;5070443;28;20236;-74
2022/07/01 11:53:35;;;;;;;9.05;6.13;;;19.50;99.90;;;;;;5066778;28;20232;-74
2022/07/01 11:56:33;;;;;;;8.93;6.45;;;19.50;99.90;;;;;;5062176;28;20256;-74
2022/07/01 11:59:18;;;;;;;7.70;5.68;;;19.50;99.90;;;;;;5076044;28;20217;-74
2022/07/01 12:02:02;;;;;;;7.82;5.47;;;19.50;99.90;;;;;;5081833;28;20198;-74
2022/07/01 12:04:46;;;;;;;7.22;5.18;;;19.50;99.90;;;;;;5066991;28;20225;-74
2022/07/01 12:07:31;;;;;;;5.35;4.85;;;19.50;99.90;;;;;;5063232;28;20194;-74
2022/07/01 12:10:16;;;;;;;6.43;5.22;;;19.50;99.90;;;;;;5063128;28;20198;-74
2022/07/01 12:13:19;;;;;;;7.05;5.35;;;19.40;99.90;;;;;;5060625;28;20265;-74
2022/07/01 12:16:10;;;;;;;5.03;4.50;;;19.40;99.90;;;;;;5077642;28;20202;-74
2022/07/01 12:19:00;;;;;;;7.13;5.15;;;19.40;99.90;;;;;;5068969;28;20193;-74
2022/07/01 12:21:53;;;;;;;6.13;4.82;;;19.40;99.90;;;;;;5065181;28;20213;-74
2022/07/01 12:24:38;;;;;;;8.93;5.40;;;19.40;99.90;;;;;;5066371;28;20221;-75
2022/07/01 12:27:22;;;;;;;6.25;4.05;;;19.40;99.90;;;;;;5058810;28;20186;-74
2022/07/01 12:30:09;;;;;;;4.30;3.83;;;19.40;99.90;;;;;;5070252;28;20245;-74
2022/07/01 12:32:53;;;;;;;4.80;4.03;;;19.40;99.90;;;;;;5058106;28;20238;-74
2022/07/01 12:35:42;;;;;;;4.68;3.75;;;19.40;99.90;;;;;;5058558;28;20565;-74
2022/07/01 12:38:26;;;;;;;5.13;4.00;;;19.40;99.90;;;;;;5056212;28;20198;-74
2022/07/01 12:41:30;;;;;;;6.95;3.60;;;19.40;99.90;;;;;;5057980;28;20205;-74
2022/07/01 12:44:25;;;;;;;6.03;4.00;;;19.50;99.90;;;;;;5062009;28;20256;-74
2022/07/01 12:47:20;;;;;;;6.97;3.80;;;19.60;99.90;;;;;;5057470;28;20198;-74
2022/07/01 12:50:22;;;;;;;3.88;3.22;;;19.60;99.90;;;;;;5087760;28;20181;-74
2022/07/01 12:53:11;;;;;;;7.00;3.88;;;19.70;99.90;;;;;;5056995;28;20221;-74
2022/07/01 12:55:57;;;;;;;5.45;3.10;;;19.80;99.90;;;;;;5065516;28;20395;-74
2022/07/01 12:58:41;;;;;;;4.22;3.47;;;19.80;99.90;;;;;;5056806;28;20185;-73
2022/07/01 13:01:25;;;;;;;4.95;3.47;;;19.80;99.90;;;;;;5051619;28;20656;-74
2022/07/01 13:04:09;;;;;;;3.63;3.08;;;19.90;99.90;;;;;;5053731;28;20272;-74
2022/07/01 13:06:54;;;;;;;5.28;2.75;;;20.00;99.90;;;;;;5055321;28;20737;-74
2022/07/01 13:09:38;;;;;;;3.88;2.97;;;20.10;99.90;;;;;;5056641;28;20214;-74
2022/07/01 13:12:22;;;;;;;3.58;2.90;;;20.10;99.90;;;;;;5056251;28;20217;-75
2022/07/01 13:15:07;;;;;;;4.68;3.00;;;20.10;99.90;;;;;;5061029;28;20258;-75
2022/07/01 13:17:51;;;;;;;4.93;2.90;;;20.20;99.90;;;;;;5053126;28;20210;-75
2022/07/01 13:20:36;;;;;;;5.63;3.08;;;20.20;99.90;;;;;;5058569;28;20244;-75
2022/07/01 13:23:20;;;;;;;5.85;3.17;;;20.20;99.90;;;;;;5056599;28;20221;-75
2022/07/01 13:26:04;;;;;;;4.85;3.15;;;20.20;99.90;;;;;;5058736;28;20213;-75
2022/07/01 13:28:48;;;;;;;4.28;2.97;;;20.20;99.90;;;;;;5057600;28;20183;-75
2022/07/01 13:31:32;;;;;;;6.82;2.80;;;20.30;99.90;;;;;;5060605;28;20185;-75
2022/07/01 13:34:17;;;;;;;3.88;3.00;;;20.30;99.90;;;;;;5058507;28;20213;-75
2022/07/01 13:37:01;;;;;;;3.80;2.75;;;20.40;99.90;;;;;;5061156;28;20220;-75
2022/07/01 13:39:45;;;;;;;3.75;3.08;;;20.50;99.90;;;;;;5055208;28;20244;-74
2022/07/01 13:42:29;;;;;;;8.50;3.83;;;20.70;99.90;;;;;;5055410;28;20210;-74
2022/07/01 13:45:13;;;;;;;3.60;3.10;;;20.70;99.90;;;;;;5056900;28;20217;-74
2022/07/01 13:47:57;;;;;;;6.22;3.13;;;20.80;99.90;;;;;;5057090;28;20202;-74
2022/07/01 13:50:41;;;;;;;5.13;3.17;;;20.80;99.90;;;;;;5057286;28;20199;-74
2022/07/01 13:53:25;;;;;;;4.28;3.20;;;20.80;99.90;;;;;;5057856;28;20241;-75
2022/07/01 13:56:09;;;;;;;4.78;3.28;;;20.80;99.90;;;;;;5064118;28;20247;-75
2022/07/01 13:58:53;;;;;;;3.17;2.85;;;20.80;99.90;;;;;;5058762;28;20271;-75
2022/07/01 14:01:39;;;;;;;3.67;2.58;;;20.80;99.90;;;;;;5055273;28;20190;-74
2022/07/01 14:04:23;;;;;;;9.77;4.50;;;20.90;99.90;;;;;;5059360;28;20276;-75
2022/07/01 14:07:07;;;;;;;7.07;3.13;;;20.90;99.90;;;;;;5060013;28;20186;-75
2022/07/01 14:09:51;;;;;;;5.40;3.20;;;20.90;99.90;;;;;;5057873;28;20280;-75
2022/07/01 14:12:35;;;;;;;5.43;3.08;;;21.00;99.90;;;;;;5057412;28;20202;-75
2022/07/01 14:15:19;;;;;;;4.93;3.35;;;21.10;99.90;;;;;;5061072;28;20230;-75
2022/07/01 14:18:04;;;;;;;5.35;3.08;;;21.10;99.90;;;;;;5058492;28;20240;-75
2022/07/01 14:20:48;;;;;;;3.40;2.70;;;21.20;99.90;;;;;;5057029;28;20245;-75
2022/07/01 14:23:33;;;;;;;2.88;2.58;;;21.40;99.90;;;;;;5056091;28;20217;-75
2022/07/01 14:26:17;;;;;;;4.15;3.10;;;21.50;99.90;;;;;;5054839;28;20249;-75